Terminal Aerodrome Forecast
Issued by NWS Cleveland, OH

Home | Current Version | Previous Version | Text Only | Print | Product List | Glossary Off
Versions: 1 2 3 4 5 6 7 8 9 10 11 12 13 14 15 16 17 18 19 20 21 22

414
FTUS41 KCLE 212335
TAFCLE
TAF
KCLE 212335Z 2200/2306 31012G20KT P6SM BKN250
     FM220200 34015G26KT P6SM SCT250
     FM220500 35016G28KT P6SM BKN035
     FM221600 36012G22KT P6SM SCT035
     FM222200 01007KT P6SM SCT250=

USA.gov is the U.S. government's official web portal to all federal, state and local government web resources and services.